Current Weather

Mors Muni - JR Washburn Field

Mors Muni - JR Washburn Field, Illinois (KC09)

Report from: Wednesday, September 28, 2022 4:15 AM CDT
Current time: Wednesday, September 28, 2022 4:29 AM CDT

Nearby weather
Weather history
Weather forecast

Temperature5.5°C (41.9°F)
Wind chill4.5°C (40.0°F)
Dew point5.1°C (41.2°F)
Winds 3 kts (1.5 m/s, 3.5 mph) North-Northwest (340°)
Visibility10 mi. (16.1 km)
Clouds Sky clear
Altimeter30.34 in.Hg (1027 mB)
Relative humidity97 %
Density altitude-1,500 ft. (-457 m)
Remarks Fully automated report
Automated weather observing station with precipitation discriminator
Flight conditions Visual Meteorological Conditions
Raw dataKC09 280915Z AUTO 34003KT 10SM CLR 06/05 A3034 RMK AO2 T00550051
An error has occurred. This application may no longer respond until reloaded. Reload 🗙